Fri Langesund — ZDKQ8 — position and weather

sailwx.info

Track history (hours):
 
Tides and Currents Weather Stations Pressure Air Temp Water Temp Dewpoint Dewpoint Depression Visibility Wind Speed Wind Dir Waves Ship Positions

Fri Langesund

Last reported at 2015-Mar-05 20:21 UTC. Time now 2015-Mar-05 22:32 UTC.
Position N 53°16' E 004°27'.

Length 90 m; draft 5.9 m.

Type: Cargo ship. MMSI: 236111779.

Date/timePositionNaut miles runAvg speedWind from/ knotsBaromVisibWave heightAir tempDewpointWater temp
2015-Mar-05 20:21N 53°16' E 004°27'16 8.9
2015-Mar-05 18:31N 53°30' E 004°42'8 8.3
2015-Mar-05 17:31N 53°33' E 004°55'8 8.2
2015-Mar-05 16:33N 53°35' E 005°08'10 9.5
2015-Mar-05 15:33N 53°38' E 005°23'1110.5
2015-Mar-05 14:32N 53°42' E 005°40'1110.8
2015-Mar-05 13:32N 53°45' E 005°57'1110.8
2015-Mar-05 12:32N 53°49' E 006°15'3410.2
2015-Mar-05 09:10N 53°57' E 007°11'3 4.6
2015-Mar-05 08:33N 53°58' E 007°16'8 8.3
2015-Mar-05 07:33N 53°60' E 007°29'9 8.6
2015-Mar-05 06:33N 54°01' E 007°44'9 9.4
2015-Mar-05 05:33N 54°01' E 007°60'10 8.7
2015-Mar-05 04:25N 54°00' E 008°17'1112.7
2015-Mar-05 03:32N 53°58' E 008°36'8 7.7
2015-Mar-05 02:33N 53°52' E 008°44'0 0.2
2015-Mar-05 01:30N 53°52' E 008°44'1 0.8
2015-Mar-05 00:33N 53°52' E 008°45'7 7.5
2015-Mar-04 23:33N 53°51' E 008°58'7 7.1
2015-Mar-04 22:33N 53°54' E 009°09'4 4.3
2015-Mar-04 21:33N 53°57' E 009°14'7 7.0
2015-Mar-04 20:33N 54°03' E 009°18'9 8.1
2015-Mar-04 19:30N 54°10' E 009°27'11 8.0
2015-Mar-04 18:09N 54°18' E 009°40'5 8.0
2015-Mar-04 17:33N 54°21' E 009°46'7 7.1
2015-Mar-04 16:33N 54°21' E 009°58'6 5.9
2015-Mar-04 15:33N 54°22' E 010°08'1 1.2
2015-Mar-04 14:33N 54°22' E 010°10'3 3.5
2015-Mar-04 13:33N 54°25' E 010°13'9 8.9
2015-Mar-04 12:33N 54°31' E 010°24'9 9.0
2015-Mar-04 11:33N 54°35' E 010°38'18 9.1
2015-Mar-04 09:33N 54°36' E 011°09'9 9.3
2015-Mar-04 08:33N 54°33' E 011°24'9 9.1
2015-Mar-04 07:33N 54°29' E 011°39'9 8.9
2015-Mar-04 06:33N 54°27' E 011°53'9 8.7
2015-Mar-04 05:33N 54°28' E 012°08'10 9.4
2015-Mar-04 04:30N 54°37' E 012°15'10 9.2
2015-Mar-04 03:25N 54°42' E 012°30'26 9.1
2015-Mar-04 00:31N 54°46' E 013°15'9 9.5
2015-Mar-03 23:33N 54°44' E 013°30'10 9.9
2015-Mar-03 22:33N 54°37' E 013°43'1010.5
2015-Mar-03 21:33N 54°28' E 013°52'1110.3
2015-Mar-03 20:31N 54°19' E 014°02'11 9.4
2015-Mar-03 19:23N 54°11' E 014°13'910.3
2015-Mar-03 18:33N 54°02' E 014°15'8 7.7
2015-Mar-03 17:32N 53°54' E 014°16'0 0.0
2015-Mar-03 16:32N 53°54' E 014°16'0 0.0
2015-Mar-03 15:32N 53°54' E 014°16'0 0.0
2015-Mar-03 14:32N 53°54' E 014°16'0 0.0
2015-Mar-03 13:32N 53°54' E 014°16'0 0.0
2015-Mar-03 12:32N 53°54' E 014°16'0 0.0
2015-Mar-03 11:32N 53°54' E 014°16'0 0.0
2015-Mar-03 10:32N 53°54' E 014°16'0 0.0
2015-Mar-03 09:32N 53°54' E 014°16'0 0.0
2015-Mar-03 08:32N 53°54' E 014°16'0 0.0
2015-Mar-03 07:32N 53°54' E 014°16'0 0.0
2015-Mar-03 06:32N 53°54' E 014°16'0 0.0
2015-Mar-03 05:32N 53°54' E 014°16'0 0.0
2015-Mar-03 04:32N 53°54' E 014°16'0 0.0
2015-Mar-03 03:32N 53°54' E 014°16'0 0.0
2015-Mar-03 02:32N 53°54' E 014°16'0 0.0
2015-Mar-03 01:32N 53°54' E 014°16'0 0.0
2015-Mar-03 00:32N 53°54' E 014°16'0 0.0
2015-Mar-02 23:32N 53°54' E 014°16'1 0.8
2015-Mar-02 22:33N 53°55' E 014°17'3 2.5
2015-Mar-02 21:32N 53°57' E 014°15'0 0.0
2015-Mar-02 20:32N 53°57' E 014°15'0 0.0
2015-Mar-02 19:29N 53°57' E 014°15'0 0.0
2015-Mar-02 18:32N 53°57' E 014°15'0 0.0
2015-Mar-02 17:32N 53°57' E 014°15'0 0.0
2015-Mar-02 16:32N 53°57' E 014°15'0 0.0
2015-Mar-02 15:32N 53°57' E 014°15'0 0.0
2015-Mar-02 14:32N 53°57' E 014°15'0 0.0
2015-Mar-02 13:32N 53°57' E 014°15'0 0.0
2015-Mar-02 12:32N 53°57' E 014°15'0 0.0
2015-Mar-02 11:32N 53°57' E 014°15'0 0.0
2015-Mar-02 10:32N 53°57' E 014°15'0 0.0
2015-Mar-02 09:32N 53°57' E 014°15'0 0.1
2015-Mar-02 08:32N 53°57' E 014°14'0 0.0
2015-Mar-02 07:32N 53°57' E 014°14'0 0.0
2015-Mar-02 06:32N 53°57' E 014°14'0 0.0
2015-Mar-02 05:32N 53°57' E 014°14'0 0.0
2015-Mar-02 04:32N 53°57' E 014°14'0 0.0
2015-Mar-02 03:32N 53°57' E 014°14'0 0.0
2015-Mar-02 02:32N 53°57' E 014°14'0 0.0
2015-Mar-02 01:32N 53°57' E 014°14'0 0.0
2015-Mar-02 00:32N 53°57' E 014°14'0 0.0
2015-Mar-01 23:32N 53°57' E 014°14'0 0.0
2015-Mar-01 22:29N 53°57' E 014°14'0 0.0
2015-Mar-01 21:32N 53°57' E 014°14'0 0.0
2015-Mar-01 20:32N 53°57' E 014°14'0 0.0
2015-Mar-01 19:32N 53°57' E 014°14'0 0.0
2015-Mar-01 18:32N 53°57' E 014°14'0 0.0
2015-Mar-01 17:32N 53°57' E 014°14'0 0.0
2015-Mar-01 16:32N 53°57' E 014°14'0 0.0
2015-Mar-01 15:32N 53°57' E 014°14'0 0.0
2015-Mar-01 14:32N 53°57' E 014°14'0 0.0
2015-Mar-01 13:32N 53°57' E 014°14'0 0.0
2015-Mar-01 12:32N 53°57' E 014°14'0 0.0
2015-Mar-01 11:32N 53°57' E 014°14'0 0.0
2015-Mar-01 10:32N 53°57' E 014°14'0 0.0
2015-Mar-01 09:32N 53°57' E 014°14'0 0.0
2015-Mar-01 08:32N 53°57' E 014°14'0 0.0
2015-Mar-01 07:32N 53°57' E 014°14'0 0.0
2015-Mar-01 06:32N 53°57' E 014°14'0 0.0
2015-Mar-01 05:32N 53°57' E 014°14'0 0.0
2015-Mar-01 04:32N 53°57' E 014°14'0 0.0
2015-Mar-01 03:32N 53°57' E 014°14'0 0.0
2015-Mar-01 02:32N 53°57' E 014°14'0 0.0
2015-Mar-01 01:32N 53°57' E 014°14'0 0.0
2015-Mar-01 00:32N 53°57' E 014°14'0 0.0
2015-Feb-28 23:32N 53°57' E 014°14'0 0.0
2015-Feb-28 22:32N 53°57' E 014°14'0 0.0
2015-Feb-28 21:32N 53°57' E 014°14'0 0.0
2015-Feb-28 20:32N 53°57' E 014°14'0 0.0
2015-Feb-28 19:32N 53°57' E 014°14'0 0.0
2015-Feb-28 18:32N 53°57' E 014°14'0 0.0
2015-Feb-28 17:32N 53°57' E 014°14'0 0.0
2015-Feb-28 16:32N 53°57' E 014°15'4 3.5
2015-Feb-28 15:15N 54°02' E 014°12'811.2
2015-Feb-28 14:33N 54°09' E 014°09'1110.8
2015-Feb-28 13:33N 54°19' E 014°00'1111.3
2015-Feb-28 12:33N 54°28' E 013°50'1111.1
2015-Feb-28 11:33N 54°38' E 013°39'1010.4
2015-Feb-28 10:33N 54°42' E 013°23'1111.0
2015-Feb-28 09:33N 54°40' E 013°05'1111.3
2015-Feb-28 08:33N 54°36' E 012°46'1211.7
2015-Feb-28 07:33N 54°33' E 012°27'1111.0
2015-Feb-28 06:34N 54°26' E 012°12'1111.0
2015-Feb-28 05:33N 54°16' E 012°05'8 8.3
2015-Feb-28 04:33N 54°07' E 012°06'0 0.3
2015-Feb-28 03:28N 54°07' E 012°05'0 0.0
2015-Feb-28 02:31N 54°07' E 012°05'0 0.0
2015-Feb-28 01:31N 54°07' E 012°05'0 0.0
2015-Feb-28 00:31N 54°07' E 012°05'0 0.0
2015-Feb-27 23:31N 54°07' E 012°05'0 0.0
2015-Feb-27 22:31N 54°07' E 012°05'0 0.0
2015-Feb-27 21:31N 54°07' E 012°05'0 0.0
2015-Feb-27 20:28N 54°07' E 012°05'0 0.0
2015-Feb-27 19:16N 54°07' E 012°05'0 0.0
2015-Feb-27 18:31N 54°07' E 012°05'0 0.0
2015-Feb-27 17:31N 54°07' E 012°05'0 0.0
2015-Feb-27 16:31N 54°07' E 012°05'0 0.0
2015-Feb-27 15:31N 54°07' E 012°05'0 0.0
2015-Feb-27 14:31N 54°07' E 012°05'0 0.0
2015-Feb-27 13:25N 54°07' E 012°05'0 0.0
2015-Feb-27 12:28N 54°07' E 012°05'0 0.0
2015-Feb-27 11:31N 54°07' E 012°05'0 0.0
2015-Feb-27 10:31N 54°07' E 012°05'0 0.0
2015-Feb-27 09:31N 54°07' E 012°05'0 0.0
2015-Feb-27 08:28N 54°07' E 012°05'0 0.0
2015-Feb-27 07:31N 54°07' E 012°05'0 0.0
2015-Feb-27 06:28N 54°07' E 012°05'0 0.0
2015-Feb-27 05:31N 54°07' E 012°05'0 0.0
2015-Feb-27 04:25N 54°07' E 012°05'0 0.0
2015-Feb-27 02:31N 54°07' E 012°05'0 0.0
2015-Feb-27 00:25N 54°07' E 012°05'0 0.0
2015-Feb-26 23:31N 54°07' E 012°05'0 0.0
2015-Feb-26 22:31N 54°07' E 012°05'0 0.0
2015-Feb-26 21:31N 54°07' E 012°05'0 0.0
2015-Feb-26 20:31N 54°07' E 012°05'0 0.0
2015-Feb-26 19:31N 54°07' E 012°05'0 0.0
2015-Feb-26 18:31N 54°07' E 012°05'0 0.0
2015-Feb-26 17:13N 54°07' E 012°05'0 0.0
2015-Feb-26 16:28N 54°07' E 012°05'0 0.0
2015-Feb-26 15:31N 54°07' E 012°05'0 0.0
2015-Feb-26 14:28N 54°07' E 012°05'0 0.0
2015-Feb-26 13:25N 54°07' E 012°05'0 0.0
2015-Feb-26 12:25N 54°07' E 012°05'0 0.0
2015-Feb-26 11:33N 54°07' E 012°05'3 2.7
2015-Feb-26 10:33N 54°10' E 012°06'9 8.8
2015-Feb-26 09:31N 54°17' E 011°55'9 9.8
2015-Feb-26 08:33N 54°22' E 011°42'1010.1
2015-Feb-26 07:33N 54°28' E 011°28'9 9.5
2015-Feb-26 06:33N 54°34' E 011°15'10 9.5
2015-Feb-26 05:33N 54°38' E 011°01'179 8.9
2015-Feb-25 09:20N 57°37' E 010°44'9 9.5
2015-Feb-25 08:24N 57°46' E 010°45'910.9
2015-Feb-25 07:33N 57°46' E 010°27'  
Track history (hours):
 
Tides and Currents Weather Stations Pressure Air Temp Water Temp Dewpoint Dewpoint Depression Visibility Wind Speed Wind Dir Waves Ship Positions

Fri Langesund

Last reported at 2015-Mar-05 20:21 UTC. Time now 2015-Mar-05 22:32 UTC.
Position N 53°16' E 004°27'.

Length 90 m; draft 5.9 m.

Type: Cargo ship. MMSI: 236111779.

Date/timePositionNaut miles runAvg speedWind from/ knotsBaromVisibWave heightAir tempDewpointWater temp
2015-Mar-05 20:21N 53°16' E 004°27'16 8.9
2015-Mar-05 18:31N 53°30' E 004°42'8 8.3
2015-Mar-05 17:31N 53°33' E 004°55'8 8.2
2015-Mar-05 16:33N 53°35' E 005°08'10 9.5
2015-Mar-05 15:33N 53°38' E 005°23'1110.5
2015-Mar-05 14:32N 53°42' E 005°40'1110.8
2015-Mar-05 13:32N 53°45' E 005°57'1110.8
2015-Mar-05 12:32N 53°49' E 006°15'3410.2
2015-Mar-05 09:10N 53°57' E 007°11'3 4.6
2015-Mar-05 08:33N 53°58' E 007°16'8 8.3
2015-Mar-05 07:33N 53°60' E 007°29'9 8.6
2015-Mar-05 06:33N 54°01' E 007°44'9 9.4
2015-Mar-05 05:33N 54°01' E 007°60'10 8.7
2015-Mar-05 04:25N 54°00' E 008°17'1112.7
2015-Mar-05 03:32N 53°58' E 008°36'8 7.7
2015-Mar-05 02:33N 53°52' E 008°44'0 0.2
2015-Mar-05 01:30N 53°52' E 008°44'1 0.8
2015-Mar-05 00:33N 53°52' E 008°45'7 7.5
2015-Mar-04 23:33N 53°51' E 008°58'7 7.1
2015-Mar-04 22:33N 53°54' E 009°09'4 4.3
2015-Mar-04 21:33N 53°57' E 009°14'7 7.0
2015-Mar-04 20:33N 54°03' E 009°18'9 8.1
2015-Mar-04 19:30N 54°10' E 009°27'11 8.0
2015-Mar-04 18:09N 54°18' E 009°40'5 8.0
2015-Mar-04 17:33N 54°21' E 009°46'7 7.1
2015-Mar-04 16:33N 54°21' E 009°58'6 5.9
2015-Mar-04 15:33N 54°22' E 010°08'1 1.2
2015-Mar-04 14:33N 54°22' E 010°10'3 3.5
2015-Mar-04 13:33N 54°25' E 010°13'9 8.9
2015-Mar-04 12:33N 54°31' E 010°24'9 9.0
2015-Mar-04 11:33N 54°35' E 010°38'18 9.1
2015-Mar-04 09:33N 54°36' E 011°09'9 9.3
2015-Mar-04 08:33N 54°33' E 011°24'9 9.1
2015-Mar-04 07:33N 54°29' E 011°39'9 8.9
2015-Mar-04 06:33N 54°27' E 011°53'9 8.7
2015-Mar-04 05:33N 54°28' E 012°08'10 9.4
2015-Mar-04 04:30N 54°37' E 012°15'10 9.2
2015-Mar-04 03:25N 54°42' E 012°30'26 9.1
2015-Mar-04 00:31N 54°46' E 013°15'9 9.5
2015-Mar-03 23:33N 54°44' E 013°30'10 9.9
2015-Mar-03 22:33N 54°37' E 013°43'1010.5
2015-Mar-03 21:33N 54°28' E 013°52'1110.3
2015-Mar-03 20:31N 54°19' E 014°02'11 9.4
2015-Mar-03 19:23N 54°11' E 014°13'910.3
2015-Mar-03 18:33N 54°02' E 014°15'8 7.7
2015-Mar-03 17:32N 53°54' E 014°16'0 0.0
2015-Mar-03 16:32N 53°54' E 014°16'0 0.0
2015-Mar-03 15:32N 53°54' E 014°16'0 0.0
2015-Mar-03 14:32N 53°54' E 014°16'0 0.0
2015-Mar-03 13:32N 53°54' E 014°16'0 0.0
2015-Mar-03 12:32N 53°54' E 014°16'0 0.0
2015-Mar-03 11:32N 53°54' E 014°16'0 0.0
2015-Mar-03 10:32N 53°54' E 014°16'0 0.0
2015-Mar-03 09:32N 53°54' E 014°16'0 0.0
2015-Mar-03 08:32N 53°54' E 014°16'0 0.0
2015-Mar-03 07:32N 53°54' E 014°16'0 0.0
2015-Mar-03 06:32N 53°54' E 014°16'0 0.0
2015-Mar-03 05:32N 53°54' E 014°16'0 0.0
2015-Mar-03 04:32N 53°54' E 014°16'0 0.0
2015-Mar-03 03:32N 53°54' E 014°16'0 0.0
2015-Mar-03 02:32N 53°54' E 014°16'0 0.0
2015-Mar-03 01:32N 53°54' E 014°16'0 0.0
2015-Mar-03 00:32N 53°54' E 014°16'0 0.0
2015-Mar-02 23:32N 53°54' E 014°16'1 0.8
2015-Mar-02 22:33N 53°55' E 014°17'3 2.5
2015-Mar-02 21:32N 53°57' E 014°15'0 0.0
2015-Mar-02 20:32N 53°57' E 014°15'0 0.0
2015-Mar-02 19:29N 53°57' E 014°15'0 0.0
2015-Mar-02 18:32N 53°57' E 014°15'0 0.0
2015-Mar-02 17:32N 53°57' E 014°15'0 0.0
2015-Mar-02 16:32N 53°57' E 014°15'0 0.0
2015-Mar-02 15:32N 53°57' E 014°15'0 0.0
2015-Mar-02 14:32N 53°57' E 014°15'0 0.0
2015-Mar-02 13:32N 53°57' E 014°15'0 0.0
2015-Mar-02 12:32N 53°57' E 014°15'0 0.0
2015-Mar-02 11:32N 53°57' E 014°15'0 0.0
2015-Mar-02 10:32N 53°57' E 014°15'0 0.0
2015-Mar-02 09:32N 53°57' E 014°15'0 0.1
2015-Mar-02 08:32N 53°57' E 014°14'0 0.0
2015-Mar-02 07:32N 53°57' E 014°14'0 0.0
2015-Mar-02 06:32N 53°57' E 014°14'0 0.0
2015-Mar-02 05:32N 53°57' E 014°14'0 0.0
2015-Mar-02 04:32N 53°57' E 014°14'0 0.0
2015-Mar-02 03:32N 53°57' E 014°14'0 0.0
2015-Mar-02 02:32N 53°57' E 014°14'0 0.0
2015-Mar-02 01:32N 53°57' E 014°14'0 0.0
2015-Mar-02 00:32N 53°57' E 014°14'0 0.0
2015-Mar-01 23:32N 53°57' E 014°14'0 0.0
2015-Mar-01 22:29N 53°57' E 014°14'0 0.0
2015-Mar-01 21:32N 53°57' E 014°14'0 0.0
2015-Mar-01 20:32N 53°57' E 014°14'0 0.0
2015-Mar-01 19:32N 53°57' E 014°14'0 0.0
2015-Mar-01 18:32N 53°57' E 014°14'0 0.0
2015-Mar-01 17:32N 53°57' E 014°14'0 0.0
2015-Mar-01 16:32N 53°57' E 014°14'0 0.0
2015-Mar-01 15:32N 53°57' E 014°14'0 0.0
2015-Mar-01 14:32N 53°57' E 014°14'0 0.0
2015-Mar-01 13:32N 53°57' E 014°14'0 0.0
2015-Mar-01 12:32N 53°57' E 014°14'0 0.0
2015-Mar-01 11:32N 53°57' E 014°14'0 0.0
2015-Mar-01 10:32N 53°57' E 014°14'0 0.0
2015-Mar-01 09:32N 53°57' E 014°14'0 0.0
2015-Mar-01 08:32N 53°57' E 014°14'0 0.0
2015-Mar-01 07:32N 53°57' E 014°14'0 0.0
2015-Mar-01 06:32N 53°57' E 014°14'0 0.0
2015-Mar-01 05:32N 53°57' E 014°14'0 0.0
2015-Mar-01 04:32N 53°57' E 014°14'0 0.0
2015-Mar-01 03:32N 53°57' E 014°14'0 0.0
2015-Mar-01 02:32N 53°57' E 014°14'0 0.0
2015-Mar-01 01:32N 53°57' E 014°14'0 0.0
2015-Mar-01 00:32N 53°57' E 014°14'0 0.0
2015-Feb-28 23:32N 53°57' E 014°14'0 0.0
2015-Feb-28 22:32N 53°57' E 014°14'0 0.0
2015-Feb-28 21:32N 53°57' E 014°14'0 0.0
2015-Feb-28 20:32N 53°57' E 014°14'0 0.0
2015-Feb-28 19:32N 53°57' E 014°14'0 0.0
2015-Feb-28 18:32N 53°57' E 014°14'0 0.0
2015-Feb-28 17:32N 53°57' E 014°14'0 0.0
2015-Feb-28 16:32N 53°57' E 014°15'4 3.5
2015-Feb-28 15:15N 54°02' E 014°12'811.2
2015-Feb-28 14:33N 54°09' E 014°09'1110.8
2015-Feb-28 13:33N 54°19' E 014°00'1111.3
2015-Feb-28 12:33N 54°28' E 013°50'1111.1
2015-Feb-28 11:33N 54°38' E 013°39'1010.4
2015-Feb-28 10:33N 54°42' E 013°23'1111.0
2015-Feb-28 09:33N 54°40' E 013°05'1111.3
2015-Feb-28 08:33N 54°36' E 012°46'1211.7
2015-Feb-28 07:33N 54°33' E 012°27'1111.0
2015-Feb-28 06:34N 54°26' E 012°12'1111.0
2015-Feb-28 05:33N 54°16' E 012°05'8 8.3
2015-Feb-28 04:33N 54°07' E 012°06'0 0.3
2015-Feb-28 03:28N 54°07' E 012°05'0 0.0
2015-Feb-28 02:31N 54°07' E 012°05'0 0.0
2015-Feb-28 01:31N 54°07' E 012°05'0 0.0
2015-Feb-28 00:31N 54°07' E 012°05'0 0.0
2015-Feb-27 23:31N 54°07' E 012°05'0 0.0
2015-Feb-27 22:31N 54°07' E 012°05'0 0.0
2015-Feb-27 21:31N 54°07' E 012°05'0 0.0
2015-Feb-27 20:28N 54°07' E 012°05'0 0.0
2015-Feb-27 19:16N 54°07' E 012°05'0 0.0
2015-Feb-27 18:31N 54°07' E 012°05'0 0.0
2015-Feb-27 17:31N 54°07' E 012°05'0 0.0
2015-Feb-27 16:31N 54°07' E 012°05'0 0.0
2015-Feb-27 15:31N 54°07' E 012°05'0 0.0
2015-Feb-27 14:31N 54°07' E 012°05'0 0.0
2015-Feb-27 13:25N 54°07' E 012°05'0 0.0
2015-Feb-27 12:28N 54°07' E 012°05'0 0.0
2015-Feb-27 11:31N 54°07' E 012°05'0 0.0
2015-Feb-27 10:31N 54°07' E 012°05'0 0.0
2015-Feb-27 09:31N 54°07' E 012°05'0 0.0
2015-Feb-27 08:28N 54°07' E 012°05'0 0.0
2015-Feb-27 07:31N 54°07' E 012°05'0 0.0
2015-Feb-27 06:28N 54°07' E 012°05'0 0.0
2015-Feb-27 05:31N 54°07' E 012°05'0 0.0
2015-Feb-27 04:25N 54°07' E 012°05'0 0.0
2015-Feb-27 02:31N 54°07' E 012°05'0 0.0
2015-Feb-27 00:25N 54°07' E 012°05'0 0.0
2015-Feb-26 23:31N 54°07' E 012°05'0 0.0
2015-Feb-26 22:31N 54°07' E 012°05'0 0.0
2015-Feb-26 21:31N 54°07' E 012°05'0 0.0
2015-Feb-26 20:31N 54°07' E 012°05'0 0.0
2015-Feb-26 19:31N 54°07' E 012°05'0 0.0
2015-Feb-26 18:31N 54°07' E 012°05'0 0.0
2015-Feb-26 17:13N 54°07' E 012°05'0 0.0
2015-Feb-26 16:28N 54°07' E 012°05'0 0.0
2015-Feb-26 15:31N 54°07' E 012°05'0 0.0
2015-Feb-26 14:28N 54°07' E 012°05'0 0.0
2015-Feb-26 13:25N 54°07' E 012°05'0 0.0
2015-Feb-26 12:25N 54°07' E 012°05'0 0.0
2015-Feb-26 11:33N 54°07' E 012°05'3 2.7
2015-Feb-26 10:33N 54°10' E 012°06'9 8.8
2015-Feb-26 09:31N 54°17' E 011°55'9 9.8
2015-Feb-26 08:33N 54°22' E 011°42'1010.1
2015-Feb-26 07:33N 54°28' E 011°28'9 9.5
2015-Feb-26 06:33N 54°34' E 011°15'10 9.5
2015-Feb-26 05:33N 54°38' E 011°01'179 8.9
2015-Feb-25 09:20N 57°37' E 010°44'9 9.5
2015-Feb-25 08:24N 57°46' E 010°45'910.9
2015-Feb-25 07:33N 57°46' E 010°27'  

Dump ship's entire track history